Time;durP1;ratioP1;P1;durP2;ratioP2;P2;SDS_P1;SDS_P2;PMS_P1;PMS_P2;Temp;Humidity;BMP_temperature;BMP_pressure;BME280_temperature;BME280_humidity;BME280_pressure;Samples;Min_cycle;Max_cycle;Signal;HPM_P1;HPM_P2
2021/01/16 00:00:49;;;;;;;62.30;27.03;;;;;;;-8.82;71.33;100374.80;120475;1151;104407;-82
2021/01/16 00:03:17;;;;;;;51.60;23.73;;;;;;;-8.79;71.25;100369.05;120533;1150;104397;-82
2021/01/16 00:05:50;;;;;;;59.07;25.57;;;;;;;-8.84;71.55;100374.73;120503;1151;104332;-82
2021/01/16 00:08:20;;;;;;;62.23;25.90;;;;;;;-8.83;71.76;100373.07;120526;1153;103504;-82
2021/01/16 00:10:51;;;;;;;63.50;27.40;;;;;;;-8.79;71.70;100380.03;120460;1151;104422;-82
2021/01/16 00:13:20;;;;;;;67.77;28.43;;;;;;;-8.84;71.75;100376.39;120465;1149;104430;-82
2021/01/16 00:15:48;;;;;;;65.33;29.03;;;;;;;-8.86;71.32;100383.05;120481;1151;104249;-82
2021/01/16 00:18:19;;;;;;;73.30;29.67;;;;;;;-8.85;70.90;100374.66;120452;1151;104386;-82
2021/01/16 00:20:48;;;;;;;70.47;30.33;;;;;;;-8.82;71.26;100373.94;120521;1151;104449;-82
2021/01/16 00:23:16;;;;;;;72.47;28.47;;;;;;;-8.82;71.94;100374.80;120410;1151;104322;-82
2021/01/16 00:25:44;;;;;;;69.73;30.67;;;;;;;-8.86;71.35;100372.94;120495;1151;104348;-82
2021/01/16 00:28:17;;;;;;;71.10;30.63;;;;;;;-8.91;71.13;100381.97;120407;1151;104400;-82
2021/01/16 00:30:45;;;;;;;71.63;30.20;;;;;;;-8.87;72.05;100382.17;120460;1151;103125;-82
2021/01/16 00:33:24;;;;;;;73.87;31.30;;;;;;;-8.81;71.53;100379.06;120448;1151;104422;-82
2021/01/16 00:35:52;;;;;;;78.63;31.53;;;;;;;-8.77;71.68;100373.38;120502;1150;104432;-82
2021/01/16 00:38:21;;;;;;;77.57;32.50;;;;;;;-8.80;71.81;100372.34;120442;1150;104401;-82
2021/01/16 00:40:48;;;;;;;77.80;33.00;;;;;;;-8.74;72.09;100373.52;120536;1151;104426;-82
2021/01/16 00:43:17;;;;;;;82.73;32.27;;;;;;;-8.77;71.51;100375.91;120407;1151;102409;-82
2021/01/16 00:45:46;;;;;;;91.47;34.80;;;;;;;-8.86;71.41;100375.46;120574;1150;104257;-82
2021/01/16 00:48:14;;;;;;;82.83;34.30;;;;;;;-8.82;71.30;100373.94;120464;1150;104385;-82
2021/01/16 00:50:45;;;;;;;75.25;32.05;;;;;;;-8.78;71.24;100361.54;120490;1151;104361;-82
2021/01/16 00:53:13;;;;;;;76.37;32.83;;;;;;;-8.77;71.57;100363.27;120434;1151;104424;-82
2021/01/16 00:55:49;;;;;;;72.10;32.30;;;;;;;-8.82;71.39;100369.75;120504;1151;104360;-82
2021/01/16 00:58:19;;;;;;;81.50;34.93;;;;;;;-8.86;71.55;100366.22;120463;1151;104393;-82
2021/01/16 01:00:50;;;;;;;80.80;32.80;;;;;;;-8.87;71.50;100363.63;120451;1151;104435;-82
2021/01/16 01:03:20;;;;;;;87.60;34.80;;;;;;;-8.83;71.81;100370.55;120470;1151;104431;-82
2021/01/16 01:05:48;;;;;;;85.40;34.17;;;;;;;-8.87;72.00;100371.20;120526;1151;104332;-82
2021/01/16 01:08:16;;;;;;;82.67;34.93;;;;;;;-8.90;71.62;100371.06;120420;1151;104336;-82
2021/01/16 01:10:46;;;;;;;74.53;31.50;;;;;;;-8.89;71.36;100367.74;120475;1151;104473;-82
2021/01/16 01:13:14;;;;;;;82.63;32.60;;;;;;;-8.86;71.72;100368.75;120404;1151;104459;-82
2021/01/16 01:15:42;;;;;;;80.53;33.23;;;;;;;-8.92;72.21;100373.52;120522;1150;104215;-82
2021/01/16 01:18:10;;;;;;;76.20;31.87;;;;;;;-8.95;71.77;100367.46;120493;1151;104342;-82
2021/01/16 01:20:37;;;;;;;71.87;31.50;;;;;;;-8.94;71.77;100365.00;120532;1151;104857;-82
2021/01/16 01:23:05;;;;;;;77.67;31.47;;;;;;;-8.93;71.41;100360.81;120554;1151;103200;-82
2021/01/16 01:25:32;;;;;;;74.65;32.30;;;;;;;-8.97;72.27;100361.47;120428;1151;104353;-82
2021/01/16 01:28:01;;;;;;;77.40;31.37;;;;;;;-8.92;72.13;100363.41;120554;1151;104355;-82
2021/01/16 01:30:30;;;;;;;74.37;31.30;;;;;;;-8.85;72.49;100362.89;120444;1151;104381;-82
2021/01/16 01:32:59;;;;;;;74.13;31.50;;;;;;;-8.86;72.34;100365.35;120546;1151;104384;-82
2021/01/16 01:35:27;;;;;;;77.27;30.50;;;;;;;-8.87;71.96;100363.63;120464;1151;104385;-82
2021/01/16 01:37:56;;;;;;;69.70;30.20;;;;;;;-8.85;72.43;100362.89;120508;1151;104396;-82
2021/01/16 01:40:26;;;;;;;74.10;29.90;;;;;;;-8.81;72.53;100363.89;120501;1150;104479;-82
2021/01/16 01:42:56;;;;;;;72.73;30.43;;;;;;;-8.70;72.53;100354.30;120579;1150;104459;-82
2021/01/16 01:45:25;;;;;;;68.03;28.80;;;;;;;-8.56;72.23;100346.55;120471;1151;104330;-82
2021/01/16 01:47:53;;;;;;;73.83;31.13;;;;;;;-8.54;72.55;100344.95;120513;1151;104410;-82
2021/01/16 01:50:21;;;;;;;65.47;28.50;;;;;;;-8.50;72.56;100347.62;120485;1151;104588;-82
2021/01/16 01:52:50;;;;;;;65.57;28.23;;;;;;;-8.37;72.16;100349.91;120512;1151;104764;-82
2021/01/16 01:55:21;;;;;;;63.87;27.03;;;;;;;-8.31;72.73;100347.61;120412;1151;104428;-82
2021/01/16 01:57:56;;;;;;;60.50;26.77;;;;;;;-8.25;72.82;100350.44;120488;1151;104487;-82
2021/01/16 02:00:23;;;;;;;58.77;25.73;;;;;;;-8.18;72.87;100352.42;120429;1151;104484;-82
2021/01/16 02:02:58;;;;;;;59.77;25.07;;;;;;;-8.06;72.55;100342.86;120448;1151;104298;-82
2021/01/16 02:05:25;;;;;;;57.97;24.90;;;;;;;-8.00;72.17;100339.71;120426;1150;104327;-82
2021/01/16 02:07:52;;;;;;;56.27;25.73;;;;;;;-7.99;72.36;100339.77;120488;1151;102515;-82
2021/01/16 02:10:23;;;;;;;57.93;25.27;;;;;;;-7.92;72.40;100340.89;120487;1151;104446;-83
2021/01/16 02:12:54;;;;;;;58.03;23.93;;;;;;;-7.89;71.98;100337.66;120511;1151;104509;-83
2021/01/16 02:15:30;;;;;;;57.53;23.83;;;;;;;-7.88;72.47;100337.72;120548;1151;104425;-83
2021/01/16 02:18:24;;;;;;;53.57;23.93;;;;;;;-7.82;73.04;100326.98;120512;1151;103206;-83
2021/01/16 02:20:54;;;;;;;52.80;22.33;;;;;;;-7.77;72.64;100321.30;120470;1150;104438;-80
2021/01/16 02:23:27;;;;;;;52.97;22.40;;;;;;;-7.78;72.62;100324.63;120503;1151;102726;-82
2021/01/16 02:26:16;;;;;;;48.80;21.20;;;;;;;-7.77;71.97;100330.56;120495;1151;104293;-82
2021/01/16 02:28:57;;;;;;;43.13;21.13;;;;;;;-7.83;71.96;100330.31;120541;1151;104354;-81
2021/01/16 02:31:32;;;;;;;50.40;23.50;;;;;;;-7.85;72.28;100325.19;120482;1151;104463;-81
2021/01/16 02:34:02;;;;;;;51.20;22.60;;;;;;;-7.78;72.05;100326.30;120475;1151;104377;-81
2021/01/16 02:36:43;;;;;;;53.47;22.80;;;;;;;-7.74;72.06;100325.62;120416;1151;103199;-82
2021/01/16 02:39:19;;;;;;;51.70;23.07;;;;;;;-7.75;72.02;100324.75;120450;1151;104454;-83
2021/01/16 02:41:55;;;;;;;;;;;;;;;-7.69;72.45;100334.30;120517;1151;104322;-83
2021/01/16 02:44:34;;;;;;;58.40;22.10;;;;;;;-7.65;71.95;100336.15;120528;1151;104343;-82
2021/01/16 02:47:16;;;;;;;49.60;22.60;;;;;;;-7.63;72.11;100334.54;120537;1151;104394;-83
2021/01/16 02:49:52;;;;;;;50.77;21.50;;;;;;;-7.61;72.02;100328.73;120515;1153;104327;-83
2021/01/16 02:52:22;;;;;;;48.25;23.35;;;;;;;-7.63;72.10;100327.81;120440;1151;104468;-83
2021/01/16 02:54:50;;;;;;;51.00;22.37;;;;;;;-7.62;72.07;100321.94;120425;1151;104391;-83
2021/01/16 02:57:18;;;;;;;52.87;22.43;;;;;;;-7.60;71.90;100319.47;120508;1151;104354;-83
2021/01/16 02:59:46;;;;;;;53.87;22.70;;;;;;;-7.56;72.31;100321.31;120470;1151;104442;-83
2021/01/16 03:02:16;;;;;;;53.43;23.27;;;;;;;-7.50;72.18;100326.66;120497;1151;104386;-83
2021/01/16 03:04:45;;;;;;;46.27;21.60;;;;;;;-7.44;72.10;100323.50;120525;1151;104433;-83
2021/01/16 03:07:15;;;;;;;49.40;20.90;;;;;;;-7.42;72.19;100325.29;120455;1151;104559;-83
2021/01/16 03:09:43;;;;;;;43.40;21.53;;;;;;;-7.39;72.14;100330.47;120431;1151;104392;-83
2021/01/16 03:12:11;;;;;;;46.87;21.37;;;;;;;-7.36;72.14;100334.80;120454;1154;104407;-83
2021/01/16 03:14:57;;;;;;;49.70;22.10;;;;;;;-7.35;72.15;100326.42;120466;1151;104398;-83
2021/01/16 03:17:29;;;;;;;48.20;22.00;;;;;;;-7.38;71.62;100334.73;120467;1151;104433;-83
2021/01/16 03:19:56;;;;;;;50.37;22.90;;;;;;;-7.38;72.28;100327.14;120315;1151;103284;-83
2021/01/16 03:22:25;;;;;;;49.37;22.40;;;;;;;-7.35;72.27;100332.36;120484;1151;104425;-83
2021/01/16 03:24:54;;;;;;;47.60;21.67;;;;;;;-7.40;71.90;100313.55;120408;1151;104463;-83
2021/01/16 03:27:23;;;;;;;49.73;22.87;;;;;;;-7.35;72.39;100311.22;120502;1151;102909;-83
2021/01/16 03:29:51;;;;;;;50.43;22.10;;;;;;;-7.27;72.46;100314.91;120539;1151;104323;-83
2021/01/16 03:32:20;;;;;;;53.80;22.53;;;;;;;-7.23;72.10;100310.83;120500;1151;104210;-83
2021/01/16 03:34:48;;;;;;;44.60;22.10;;;;;;;-7.18;72.34;100314.40;120444;1151;105630;-83
2021/01/16 03:37:20;;;;;;;49.90;22.40;;;;;;;-7.16;72.26;100317.89;120517;1151;104319;-83
2021/01/16 03:39:49;;;;;;;45.85;22.20;;;;;;;-7.09;72.43;100323.25;120489;1148;104437;-83
2021/01/16 03:42:16;;;;;;;43.07;20.77;;;;;;;-7.08;72.23;100316.51;120465;1151;104563;-83
2021/01/16 03:44:44;;;;;;;52.70;21.77;;;;;;;-7.08;71.94;100301.30;120444;1151;104406;-83
2021/01/16 03:47:11;;;;;;;51.43;21.03;;;;;;;-7.09;72.12;100304.64;120521;1151;104423;-83
2021/01/16 03:49:39;;;;;;;46.37;21.97;;;;;;;-7.14;72.04;100308.67;120438;1151;104452;-83
2021/01/16 03:52:06;;;;;;;47.60;22.05;;;;;;;-7.13;71.98;100313.80;120470;1151;104343;-83
2021/01/16 03:54:33;;;;;;;47.00;21.27;;;;;;;-7.09;72.38;100314.78;120463;1151;104546;-83
2021/01/16 03:57:00;;;;;;;47.87;22.53;;;;;;;-7.07;72.22;100313.16;120435;1151;104488;-83
2021/01/16 03:59:27;;;;;;;51.27;22.17;;;;;;;-7.06;71.99;100307.29;120484;1151;104402;-83
2021/01/16 04:01:55;;;;;;;50.23;23.03;;;;;;;-7.00;72.68;100310.09;120540;1151;103226;-83
2021/01/16 04:04:22;;;;;;;50.63;21.87;;;;;;;-7.01;72.17;100301.58;120462;1151;104436;-83
2021/01/16 04:06:49;;;;;;;51.37;23.02;;;;;;;-7.00;72.18;100310.09;120400;1150;104420;-83
2021/01/16 04:09:16;;;;;;;47.60;21.70;;;;;;;-6.99;72.09;100311.81;120489;1151;102707;-82
2021/01/16 04:11:43;;;;;;;50.78;23.25;;;;;;;-6.99;72.31;100309.28;120375;1151;104317;-82
2021/01/16 04:14:11;;;;;;;52.27;22.37;;;;;;;-6.98;72.43;100308.47;120457;1151;104404;-82
2021/01/16 04:16:38;;;;;;;55.50;23.00;;;;;;;-6.92;72.37;100317.97;120438;1151;104469;-82
2021/01/16 04:19:06;;;;;;;56.27;25.00;;;;;;;-6.91;72.14;100314.63;120455;1151;103136;-82
2021/01/16 04:21:33;;;;;;;56.47;25.57;;;;;;;-6.94;72.15;100307.78;120497;1151;104336;-82
2021/01/16 04:24:01;;;;;;;48.40;23.40;;;;;;;-6.96;72.27;100303.45;120521;1151;104884;-82
2021/01/16 04:26:29;;;;;;;53.25;22.75;;;;;;;-7.03;71.70;100298.13;120569;1151;104425;-82
2021/01/16 04:28:56;;;;;;;52.80;24.15;;;;;;;-7.06;71.63;100285.34;120500;1151;104520;-82
2021/01/16 04:31:23;;;;;;;55.17;24.32;;;;;;;-7.14;72.04;100290.94;120523;1151;104336;-82
2021/01/16 04:33:50;;;;;;;55.20;24.63;;;;;;;-7.21;72.00;100309.22;120492;1151;104399;-82
2021/01/16 04:36:17;;;;;;;48.87;22.95;;;;;;;-7.25;72.14;100304.84;120467;1151;104381;-82
2021/01/16 04:38:44;;;;;;;55.83;24.83;;;;;;;-7.25;72.07;100299.77;120510;1151;104489;-82
2021/01/16 04:41:14;;;;;;;48.83;24.07;;;;;;;-7.29;72.15;100311.45;120461;1151;105082;-82
2021/01/16 04:43:42;;;;;;;46.87;22.20;;;;;;;-7.24;72.21;100309.96;120483;1151;103311;-82
2021/01/16 04:46:09;;;;;;;51.87;23.83;;;;;;;-7.16;72.21;100307.75;120458;1151;104461;-82
2021/01/16 04:48:37;;;;;;;54.97;25.17;;;;;;;-7.13;72.28;100307.86;120442;1151;104322;-82
2021/01/16 04:51:05;;;;;;;53.33;24.70;;;;;;;-7.13;71.93;100313.80;120526;1151;102922;-82
2021/01/16 04:53:40;;;;;;;54.00;24.10;;;;;;;-7.10;72.14;100318.13;120458;1153;104353;-82
2021/01/16 04:56:09;;;;;;;53.92;24.05;;;;;;;-7.08;72.06;100321.58;120511;1151;104343;-82
2021/01/16 04:58:38;;;;;;;49.13;23.57;;;;;;;-7.12;71.82;100312.13;120463;1151;104429;-82
2021/01/16 05:01:07;;;;;;;50.93;23.70;;;;;;;-7.15;72.06;100312.02;120499;1151;104417;-82
2021/01/16 05:03:41;;;;;;;52.80;24.10;;;;;;;-7.19;71.60;100302.53;120415;1151;104357;-82
2021/01/16 05:06:11;;;;;;;50.73;24.43;;;;;;;-7.27;71.67;100302.25;120493;1151;104327;-82
2021/01/16 05:08:43;;;;;;;53.90;24.80;;;;;;;-7.38;71.47;100306.87;120410;1151;104423;-81
2021/01/16 05:11:21;;;;;;;57.67;23.97;;;;;;;-7.43;72.00;100313.43;120468;1151;104327;-81
2021/01/16 05:13:56;;;;;;;57.80;24.93;;;;;;;-7.54;71.88;100309.61;120434;1151;104457;-81
2021/01/16 05:16:28;;;;;;;58.63;26.20;;;;;;;-7.58;71.95;100312.80;120553;1151;104447;-81
2021/01/16 05:18:56;;;;;;;61.23;27.60;;;;;;;-7.59;72.39;100311.06;120429;1151;104377;-81
2021/01/16 05:21:23;;;;;;;58.57;26.70;;;;;;;-7.59;72.27;100313.59;120570;1151;104387;-81
2021/01/16 05:23:53;;;;;;;61.87;26.50;;;;;;;-7.66;72.19;100314.16;120420;1151;104336;-81
2021/01/16 05:26:20;;;;;;;59.40;26.93;;;;;;;-7.72;72.15;100311.35;120473;1151;104330;-81
2021/01/16 05:28:49;;;;;;;55.97;25.33;;;;;;;-7.73;72.64;100312.16;120422;1151;103200;-81
2021/01/16 05:31:16;;;;;;;63.50;27.07;;;;;;;-7.76;72.01;100307.83;120471;1151;104610;-82
2021/01/16 05:33:43;;;;;;;61.13;25.90;;;;;;;-7.74;71.91;100310.42;120424;1151;102545;-82
2021/01/16 05:36:11;;;;;;;57.45;25.80;;;;;;;-7.79;72.19;100322.03;120530;1151;104386;-82
2021/01/16 05:38:42;;;;;;;62.53;26.30;;;;;;;-7.78;72.23;100318.70;120437;1151;104391;-82
2021/01/16 05:41:13;;;;;;;59.13;25.77;;;;;;;-7.80;72.45;100315.25;120455;1149;104503;-82
2021/01/16 05:43:42;;;;;;;50.83;24.80;;;;;;;-7.83;72.65;100315.13;120400;1151;104346;-81
2021/01/16 05:46:15;;;;;;;56.33;25.73;;;;;;;-7.86;72.42;100317.53;120497;1151;104372;-81
2021/01/16 05:48:42;;;;;;;54.57;25.47;;;;;;;-7.83;72.55;100315.98;120444;1151;104323;-81
2021/01/16 05:51:09;;;;;;;52.43;23.80;;;;;;;-7.83;71.92;100304.99;120499;1151;104538;-81
2021/01/16 05:53:38;;;;;;;51.30;23.87;;;;;;;-7.87;72.33;100303.14;120524;1150;104464;-81
2021/01/16 05:56:06;;;;;;;53.60;23.70;;;;;;;-7.85;72.53;100299.00;120451;1151;104439;-81
2021/01/16 05:58:34;;;;;;;55.10;23.70;;;;;;;-7.85;71.73;100286.34;120578;1150;104450;-81
2021/01/16 06:01:07;;;;;;;49.73;23.07;;;;;;;-7.91;72.38;100284.41;120439;1151;104465;-81
2021/01/16 06:03:36;;;;;;;49.40;22.07;;;;;;;-7.98;71.98;100295.95;120519;1151;104324;-81
2021/01/16 06:06:10;;;;;;;45.55;21.00;;;;;;;-7.96;72.61;100301.07;120471;1151;104399;-81
2021/01/16 06:08:52;;;;;;;45.93;21.53;;;;;;;-7.94;72.20;100292.73;120432;1151;104226;-82
2021/01/16 06:11:23;;;;;;;52.77;22.10;;;;;;;-7.92;72.32;100293.66;120443;1151;104404;-82
2021/01/16 06:13:55;;;;;;;45.80;21.37;;;;;;;-7.87;72.26;100293.02;120477;1151;104311;-82
2021/01/16 06:16:22;;;;;;;56.67;24.83;;;;;;;-7.80;72.29;100284.86;120489;1151;104484;-82
2021/01/16 06:18:54;;;;;;;49.17;21.30;;;;;;;-7.70;72.41;100292.05;120511;1151;104496;-82
2021/01/16 06:21:29;;;;;;;47.07;22.03;;;;;;;-7.64;71.85;100287.23;120440;1151;104351;-82
2021/01/16 06:23:58;;;;;;;50.30;22.63;;;;;;;-7.64;72.19;100280.50;120547;1151;104220;-82
2021/01/16 06:26:27;;;;;;;65.07;27.47;;;;;;;-7.59;72.37;100285.73;120481;1151;104416;-82
2021/01/16 06:28:57;;;;;;;63.47;26.23;;;;;;;-7.53;72.02;100282.61;120535;1151;104385;-82
2021/01/16 06:31:27;;;;;;;53.67;26.17;;;;;;;-7.44;71.98;100281.30;120405;1151;103143;-82
2021/01/16 06:34:00;;;;;;;59.20;27.30;;;;;;;-7.39;71.93;100282.34;120469;1151;104303;-83
2021/01/16 06:36:30;;;;;;;56.60;24.23;;;;;;;-7.33;72.07;100290.20;120470;1151;104420;-83
2021/01/16 06:39:06;;;;;;;50.53;21.37;;;;;;;-7.27;72.18;100279.44;120675;1151;104849;-83
2021/01/16 06:41:36;;;;;;;46.45;20.65;;;;;;;-7.21;71.83;100268.66;120556;1151;104423;-83
2021/01/16 06:44:14;;;;;;;43.90;20.70;;;;;;;-7.11;72.06;100270.77;120538;1151;104404;-83
2021/01/16 06:46:49;;;;;;;45.30;19.70;;;;;;;-7.03;71.58;100274.45;120421;1151;104364;-83
2021/01/16 06:49:29;;;;;;;42.63;19.67;;;;;;;-6.98;71.34;100280.58;120483;1151;104487;-83
2021/01/16 06:51:58;;;;;;;41.47;19.37;;;;;;;-6.98;71.05;100269.58;120456;1151;104521;-83
2021/01/16 06:54:27;;;;;;;48.27;20.53;;;;;;;-6.97;71.02;100269.63;120495;1151;104393;-83
2021/01/16 06:57:04;;;;;;;45.77;21.03;;;;;;;-6.91;70.83;100264.78;120445;1151;104490;-83
2021/01/16 06:59:32;;;;;;;47.33;21.73;;;;;;;-6.79;71.15;100265.25;120424;1154;104323;-84
2021/01/16 07:02:00;;;;;;;41.53;19.90;;;;;;;-6.75;70.95;100262.02;120421;1151;104391;-84
2021/01/16 07:04:30;;;;;;;40.00;17.93;;;;;;;-6.75;70.08;100261.16;120471;1151;104478;-83
2021/01/16 07:07:03;;;;;;;35.27;16.50;;;;;;;-6.75;70.30;100249.34;120424;1151;104502;-83
2021/01/16 07:09:31;;;;;;;39.23;16.73;;;;;;;-6.70;70.45;100255.44;120561;1151;104467;-83
2021/01/16 07:12:01;;;;;;;34.00;15.83;;;;;;;-6.62;70.50;100249.80;120456;1151;104192;-83
2021/01/16 07:14:29;;;;;;;33.87;16.03;;;;;;;-6.60;70.27;100243.97;120501;1151;104352;-83
2021/01/16 07:16:56;;;;;;;31.07;14.93;;;;;;;-6.57;69.92;100248.28;120491;1151;104923;-83
2021/01/16 07:19:24;;;;;;;33.33;14.97;;;;;;;-6.58;69.79;100244.02;120483;1151;104844;-82
2021/01/16 07:21:54;;;;;;;29.13;14.53;;;;;;;-6.53;69.85;100242.50;120509;1151;104383;-82
2021/01/16 07:24:21;;;;;;;32.47;15.10;;;;;;;-6.51;69.72;100243.42;120407;1151;104420;-82
2021/01/16 07:26:50;;;;;;;32.17;15.73;;;;;;;-6.54;69.67;100230.63;120485;1151;104349;-82
2021/01/16 07:29:17;;;;;;;36.13;16.40;;;;;;;-6.51;70.01;100230.73;120443;1151;104326;-82
2021/01/16 07:31:46;;;;;;;32.20;16.42;;;;;;;-6.36;70.33;100231.28;120543;1151;104487;-82
2021/01/16 07:34:13;;;;;;;34.70;16.27;;;;;;;-6.25;70.50;100231.67;120507;1151;104898;-82
2021/01/16 07:36:41;;;;;;;39.27;18.13;;;;;;;-6.20;70.49;100228.47;120539;1150;104419;-82
2021/01/16 07:39:11;;;;;;;44.53;20.50;;;;;;;-6.18;69.88;100228.52;120495;1150;104445;-82
2021/01/16 07:41:39;;;;;;;38.10;18.13;;;;;;;-6.11;70.32;100227.91;120549;1151;104425;-82
2021/01/16 07:44:10;;;;;;;37.50;17.60;;;;;;;-6.05;69.64;100227.27;120433;1151;104493;-82
2021/01/16 07:46:42;;;;;;;38.13;19.30;;;;;;;-6.05;69.80;100212.91;120501;1151;104457;-82
2021/01/16 07:49:13;;;;;;;40.30;18.67;;;;;;;-6.04;69.90;100213.77;120461;1151;104437;-82
2021/01/16 07:51:45;;;;;;;42.25;19.80;;;;;;;-5.95;69.79;100214.06;120516;1151;105527;-82
2021/01/16 07:54:12;;;;;;;41.73;19.27;;;;;;;-5.90;69.70;100208.34;120454;1151;102520;-82
2021/01/16 07:56:44;;;;;;;38.37;19.23;;;;;;;-5.87;69.75;100212.62;120527;1151;104418;-82
2021/01/16 07:59:17;;;;;;;38.53;19.83;;;;;;;-5.85;70.10;100193.21;120453;1150;102389;-82
2021/01/16 08:01:56;;;;;;;42.90;20.50;;;;;;;-5.92;69.15;100204.03;120471;1151;104383;-82
2021/01/16 08:04:38;;;;;;;41.43;19.43;;;;;;;-5.93;69.92;100199.73;120597;1150;104958;-82
2021/01/16 08:07:07;;;;;;;48.73;21.63;;;;;;;-5.82;70.09;100185.69;120520;1151;104585;-82
2021/01/16 08:09:53;;;;;;;43.53;20.97;;;;;;;-5.73;69.45;100185.14;120475;1151;104487;-82
2021/01/16 08:12:24;;;;;;;48.48;22.98;;;;;;;-5.64;69.51;100181.19;120450;1151;103100;-82
2021/01/16 08:14:55;;;;;;;45.20;22.33;;;;;;;-5.62;69.50;100187.18;120369;1151;104356;-83
2021/01/16 08:17:22;;;;;;;47.90;23.87;;;;;;;-5.56;70.07;100184.86;120550;1151;104350;-83
2021/01/16 08:20:07;;;;;;;45.73;21.67;;;;;;;-5.42;69.45;100177.63;120463;1151;103241;-83
2021/01/16 08:22:40;;;;;;;44.93;23.20;;;;;;;-5.30;69.91;100178.02;120491;1151;104455;-83
2021/01/16 08:25:13;;;;;;;50.40;23.43;;;;;;;-5.23;69.51;100185.00;120413;1151;104519;-83
2021/01/16 08:27:47;;;;;;;47.13;22.47;;;;;;;-5.22;69.54;100170.60;120502;1151;105081;-83
2021/01/16 08:30:19;;;;;;;53.57;26.00;;;;;;;-5.21;69.91;100169.78;120470;1150;103207;-83
2021/01/16 08:32:59;;;;;;;51.40;24.93;;;;;;;-5.16;69.01;100170.81;120461;1151;104243;-83
2021/01/16 08:35:32;;;;;;;54.73;27.20;;;;;;;-5.09;69.46;100166.75;120414;1151;104327;-83
2021/01/16 08:38:17;;;;;;;54.00;26.03;;;;;;;-5.05;69.80;100171.10;120461;1151;104383;-83
2021/01/16 08:41:02;;;;;;;52.83;25.00;;;;;;;-5.05;69.79;100168.56;120549;1150;104390;-83
2021/01/16 08:43:36;;;;;;;55.87;26.93;;;;;;;-5.04;69.27;100166.06;120503;1150;104423;-83
2021/01/16 08:46:23;;;;;;;55.83;26.97;;;;;;;-4.98;69.38;100168.80;120411;1151;104431;-83
2021/01/16 08:49:03;;;;;;;;;;;;;;;-4.97;70.02;100165.44;120480;1151;104423;-83
2021/01/16 08:51:44;;;;;;;60.67;27.53;;;;;;;-4.83;70.08;100159.89;120560;1150;104433;-83
2021/01/16 08:54:22;;;;;;;63.40;28.27;;;;;;;-4.78;70.54;100158.32;120426;1151;104329;-83
2021/01/16 08:57:04;;;;;;;63.17;29.63;;;;;;;-4.72;70.07;100158.48;120446;1151;102331;-83
2021/01/16 08:59:33;;;;;;;58.53;27.63;;;;;;;-4.68;70.26;100150.11;120453;1151;104336;-83
2021/01/16 09:02:07;;;;;;;58.00;27.67;;;;;;;-4.71;70.04;100150.89;120415;1151;103169;-83
2021/01/16 09:04:39;;;;;;;58.77;29.40;;;;;;;-4.65;70.70;100150.22;120493;1151;104814;-82
2021/01/16 09:07:25;;;;;;;55.17;26.70;;;;;;;-4.63;70.70;100146.03;120412;1151;104285;-82
2021/01/16 09:09:56;;;;;;;58.27;26.33;;;;;;;-4.58;70.90;100136.82;120493;1151;103220;-83
2021/01/16 09:12:38;;;;;;;50.97;25.43;;;;;;;-4.53;70.85;100135.25;120410;1150;104220;-83
2021/01/16 09:15:22;;;;;;;47.50;24.73;;;;;;;-4.45;71.25;100135.48;120514;1151;104484;-83
2021/01/16 09:18:02;;;;;;;48.97;24.70;;;;;;;-4.34;71.45;100136.59;120424;1151;103472;-83
2021/01/16 09:20:54;;;;;;;45.57;22.23;;;;;;;-4.32;71.43;100125.63;120468;1151;104388;-82
2021/01/16 09:23:23;;;;;;;41.47;21.63;;;;;;;-4.26;71.93;100123.25;120382;1150;104412;-82
2021/01/16 09:26:03;;;;;;;41.00;20.50;;;;;;;-4.22;72.04;100125.88;120459;1151;104298;-82
2021/01/16 09:28:53;;;;;;;35.97;18.00;;;;;;;-4.19;71.94;100120.84;120486;1150;104327;-82
2021/01/16 09:31:29;;;;;;;33.80;17.27;;;;;;;-4.15;71.62;100109.91;120454;1151;104442;-82
2021/01/16 09:34:08;;;;;;;;;;;;;;;-4.09;72.38;100107.53;120420;1151;104339;-82
2021/01/16 09:36:35;;;;;;;;;;;;;;;-4.12;71.93;100097.28;120507;1151;104414;-82
2021/01/16 09:39:05;;;;;;;31.45;15.53;;;;;;;-4.08;71.84;100099.06;120452;1150;104418;-82
2021/01/16 09:41:35;;;;;;;25.20;14.87;;;;;;;-3.95;72.90;100085.77;120540;1151;102420;-82
2021/01/16 09:44:02;;;;;;;26.83;14.43;;;;;;;-3.87;71.91;100079.19;120428;1150;104409;-82
2021/01/16 09:46:38;;;;;;;22.47;12.30;;;;;;;-3.80;71.78;100078.48;120431;1151;104445;-82
2021/01/16 09:49:08;;;;;;;24.63;13.77;;;;;;;-3.70;72.60;100072.78;120428;1150;104459;-82
2021/01/16 09:51:37;;;;;;;23.83;12.83;;;;;;;-3.62;72.42;100066.98;120501;1150;104370;-82
2021/01/16 09:54:15;;;;;;;28.07;14.77;;;;;;;-3.65;71.58;100063.54;120429;1151;104346;-83
2021/01/16 09:56:42;;;;;;;28.70;14.77;;;;;;;-3.60;71.90;100065.33;120520;1151;103419;-83
2021/01/16 09:59:12;;;;;;;28.52;15.23;;;;;;;-3.68;72.21;100062.62;120486;1151;104988;-83
2021/01/16 10:01:41;;;;;;;27.93;14.43;;;;;;;-3.72;71.69;100045.55;120524;1151;102564;-83
2021/01/16 10:04:22;;;;;;;25.40;13.45;;;;;;;-3.76;71.33;100042.08;120468;1153;103066;-83
2021/01/16 10:06:49;;;;;;;28.43;14.37;;;;;;;-3.72;71.86;100030.26;120470;1151;104382;-83
2021/01/16 10:09:21;;;;;;;27.03;14.17;;;;;;;-3.72;72.24;100018.38;120485;1151;102588;-83
2021/01/16 10:11:48;;;;;;;31.00;15.35;;;;;;;-3.74;72.42;100014.08;120545;1150;104332;-83
2021/01/16 10:14:18;;;;;;;30.97;16.50;;;;;;;-3.70;72.48;100020.95;120473;1151;104414;-83
2021/01/16 10:16:46;;;;;;;28.33;15.10;;;;;;;-3.69;72.58;100008.23;120537;1151;104385;-83
2021/01/16 10:19:17;;;;;;;27.00;14.67;;;;;;;-3.80;72.57;100004.59;120521;1151;101945;-82
2021/01/16 10:22:01;;;;;;;26.53;14.43;;;;;;;-3.81;72.41;100002.87;120528;1151;104361;-82
2021/01/16 10:24:29;;;;;;;27.95;15.20;;;;;;;-3.75;73.18;99997.92;120451;1151;104268;-82
2021/01/16 10:26:57;;;;;;;33.80;16.23;;;;;;;-3.75;73.26;99992.83;120496;1151;104380;-83
2021/01/16 10:29:40;;;;;;;31.07;16.77;;;;;;;-3.80;72.92;99990.98;120526;1151;102543;-83
2021/01/16 10:32:24;;;;;;;36.10;19.53;;;;;;;-3.77;73.05;99984.30;120495;1151;103171;-83
2021/01/16 10:34:57;;;;;;;35.13;18.77;;;;;;;-3.75;72.84;99976.68;120457;1151;103159;-83
2021/01/16 10:37:29;;;;;;;41.17;20.13;;;;;;;-3.83;73.08;99973.09;120442;1151;104386;-83
2021/01/16 10:40:04;;;;;;;41.17;20.70;;;;;;;-3.91;73.65;99972.09;120509;1150;104516;-83
2021/01/16 10:42:40;;;;;;;40.23;21.03;;;;;;;-3.91;74.16;99960.20;120510;1151;105011;-82
2021/01/16 10:45:08;;;;;;;40.10;21.47;;;;;;;-3.87;74.45;99959.44;120478;1151;104294;-83
2021/01/16 10:47:37;;;;;;;44.77;22.70;;;;;;;-3.84;74.51;99949.30;120457;1151;103219;-83
2021/01/16 10:50:12;;;;;;;44.53;22.90;;;;;;;-3.75;74.43;99948.65;120505;1151;104426;-83
2021/01/16 10:52:41;;;;;;;41.80;21.40;;;;;;;-3.74;74.16;99948.67;120463;1151;104484;-83
2021/01/16 10:55:10;;;;;;;37.30;20.23;;;;;;;-3.74;74.66;99941.03;120556;1151;104452;-83
2021/01/16 10:57:50;;;;;;;38.60;21.20;;;;;;;-3.76;75.07;99940.15;120551;1151;104382;-83
2021/01/16 11:00:19;;;;;;;39.23;21.90;;;;;;;-3.81;75.02;99936.62;120578;1150;104428;-81
2021/01/16 11:02:49;;;;;;;42.13;22.93;;;;;;;-3.83;75.06;99930.64;120490;1151;104491;-82
2021/01/16 11:05:17;;;;;;;45.03;23.83;;;;;;;-3.76;75.48;99924.00;120516;1151;104444;-82
2021/01/16 11:07:46;;;;;;;39.85;23.00;;;;;;;-3.75;75.64;99913.83;120538;1151;104420;-82
2021/01/16 11:10:19;;;;;;;41.67;21.03;;;;;;;-3.76;75.52;99909.56;120491;1151;104438;-82
2021/01/16 11:12:46;;;;;;;34.63;20.77;;;;;;;-3.74;75.72;99902.81;120495;1151;102455;-82